X  Sluiten METAR luchtvaart weer gegevens         LGTS Thessaloniki Macedonia International
Temperatuur
57°F Temperatuur
57°F Dauwpunt
100% Vochtigheid



Wind
3 MPH
6 KM/U
1 M/S
3 KTS



-1°
VRB
Huidig weer

Mostly Cloudy with Drizzle Grotendeels bewolkt , Motregen
Luchtdruk 1016 (hPa) - 30 (inHg)
Zicht 6 (mijl) - 10 (km)
Vliegveld
Vliegveld code LGTS

Locatie : Thessaloniki Macedonia International
Afstand: 85 (mi)

Metar:
METAR LGTS 251120Z VRB03KT 9999 -DZ FEW010 BKN025 14/14 Q1016 NOSIG

Tijd: 25-02-2024 13:20 EET